Time;durP1;ratioP1;P1;durP2;ratioP2;P2;SDS_P1;SDS_P2;PMS_P1;PMS_P2;Temp;Humidity;BMP_temperature;BMP_pressure;BME280_temperature;BME280_humidity;BME280_pressure;Samples;Min_cycle;Max_cycle;Signal;HPM_P1;HPM_P2
2022/07/07 00:01:43;;;;;;;10.93;7.30;;;;;;;16.40;100.00;164854.06;5017662;28;20076;-60
2022/07/07 00:04:08;;;;;;;12.05;7.25;;;;;;;16.46;100.00;164870.31;5020671;28;20024;-60
2022/07/07 00:06:34;;;;;;;8.80;6.43;;;;;;;16.53;100.00;164887.94;5020492;28;20103;-60
2022/07/07 00:09:00;;;;;;;8.57;6.75;;;;;;;16.54;100.00;164892.00;5019766;28;20018;-60
2022/07/07 00:11:27;;;;;;;13.52;6.15;;;;;;;16.44;100.00;164864.94;5019710;28;20128;-60
2022/07/07 00:13:52;;;;;;;9.88;7.07;;;;;;;16.57;100.00;164898.81;5022040;28;20021;-60
2022/07/07 00:16:18;;;;;;;10.98;5.65;;;;;;;16.59;100.00;164904.19;5015886;28;20046;-60
2022/07/07 00:18:44;;;;;;;6.53;5.90;;;;;;;16.58;100.00;164901.47;5020119;28;20029;-59
2022/07/07 00:21:09;;;;;;;9.70;6.40;;;;;;;16.60;100.00;164906.91;5018710;28;20045;-58
2022/07/07 00:23:35;;;;;;;9.65;5.57;;;;;;;16.63;100.00;164916.41;5021362;28;20396;-60
2022/07/07 00:26:01;;;;;;;8.23;6.07;;;;;;;16.64;100.00;164919.13;5018486;28;20038;-61
2022/07/07 00:28:26;;;;;;;7.40;6.70;;;;;;;16.62;100.00;164912.34;5020785;28;20112;-60
2022/07/07 00:30:52;;;;;;;11.05;6.05;;;;;;;16.61;100.00;164910.97;5012674;28;20043;-60
2022/07/07 00:33:17;;;;;;;10.55;7.28;;;;;;;16.65;100.00;164920.44;5001854;28;20018;-59
2022/07/07 00:35:43;;;;;;;7.38;5.53;;;;;;;16.64;100.00;164919.13;5009154;28;20485;-59
2022/07/07 00:38:09;;;;;;;8.40;6.05;;;;;;;16.60;100.00;164906.91;5020002;28;20024;-60
2022/07/07 00:40:35;;;;;;;8.98;6.28;;;;;;;16.64;100.00;164917.78;5020432;28;20069;-60
2022/07/07 00:43:00;;;;;;;11.57;7.05;;;;;;;16.70;100.00;164934.03;5019529;28;20087;-60
2022/07/07 00:45:26;;;;;;;10.38;6.40;;;;;;;16.76;100.00;164948.91;5018013;28;20137;-60
2022/07/07 00:47:52;;;;;;;8.15;7.35;;;;;;;16.68;100.00;164928.59;5019880;28;20483;-59
2022/07/07 00:50:18;;;;;;;8.55;6.80;;;;;;;16.67;100.00;164925.88;5024969;28;20450;-60
2022/07/07 00:52:44;;;;;;;8.23;7.22;;;;;;;16.65;100.00;164920.44;5026555;28;20079;-60
2022/07/07 00:55:10;;;;;;;12.73;7.80;;;;;;;16.68;100.00;164928.59;5024992;28;20041;-60
2022/07/07 00:57:36;;;;;;;16.48;7.75;;;;;;;16.68;100.00;164928.59;5028196;28;20017;-60
2022/07/07 01:00:07;;;;;;;12.25;8.27;;;;;;;16.66;100.00;164923.16;5023464;28;20042;-60
2022/07/07 01:02:33;;;;;;;8.60;7.53;;;;;;;16.68;100.00;164928.59;5026369;28;20391;-60
2022/07/07 01:04:59;;;;;;;9.65;7.40;;;;;;;16.65;100.00;164920.44;5020766;28;20038;-60
2022/07/07 01:07:26;;;;;;;8.90;6.82;;;;;;;16.53;100.00;164887.94;5026377;28;20092;-60
2022/07/07 01:09:52;;;;;;;9.00;7.93;;;;;;;16.67;100.00;164925.88;5024964;28;20038;-60
2022/07/07 01:12:18;;;;;;;8.68;7.22;;;;;;;16.65;100.00;164920.44;5027868;28;20378;-60
2022/07/07 01:14:43;;;;;;;13.07;8.32;;;;;;;16.69;100.00;164931.31;5024675;28;20466;-60
2022/07/07 01:17:08;;;;;;;8.85;7.57;;;;;;;16.64;100.00;164917.78;5026522;28;20371;-60
2022/07/07 01:19:34;;;;;;;10.80;8.20;;;;;;;16.61;100.00;164909.63;5023725;28;20095;-60
2022/07/07 01:22:14;;;;;;;17.20;8.70;;;;;;;16.62;100.00;164912.34;5020008;28;20020;-60
2022/07/07 01:24:40;;;;;;;9.73;8.18;;;;;;;16.63;100.00;164915.06;5021935;28;20025;-61
2022/07/07 01:27:10;;;;;;;11.45;8.68;;;;;;;16.63;100.00;164915.06;5026575;28;20021;-60
2022/07/07 01:29:39;;;;;;;9.68;7.55;;;;;;;16.62;100.00;164912.34;5023232;28;20029;-61
2022/07/07 01:32:07;;;;;;;13.52;8.48;;;;;;;16.59;100.00;164905.59;5027403;28;20030;-60
2022/07/07 01:34:33;;;;;;;11.93;9.07;;;;;;;16.61;100.00;164909.63;5024534;28;20033;-60
2022/07/07 01:37:00;;;;;;;10.98;9.10;;;;;;;16.59;100.00;164905.59;5022812;28;20042;-60
2022/07/07 01:39:25;;;;;;;13.95;11.00;;;;;;;16.62;100.00;164912.34;5027091;28;20040;-60
2022/07/07 01:41:51;;;;;;;16.00;11.27;;;;;;;16.68;100.00;164927.25;5025729;28;20382;-60
2022/07/07 01:44:16;;;;;;;20.45;11.48;;;;;;;16.62;100.00;164913.69;5025027;28;20033;-60
2022/07/07 01:46:41;;;;;;;11.80;10.60;;;;;;;16.59;100.00;164905.59;5023777;28;20041;-60
2022/07/07 01:49:07;;;;;;;14.27;11.43;;;;;;;16.56;100.00;164896.09;5026443;28;20030;-61
2022/07/07 01:51:32;;;;;;;15.27;10.75;;;;;;;16.70;100.00;164934.03;5025604;28;20038;-60
2022/07/07 01:53:57;;;;;;;13.45;11.05;;;;;;;16.70;100.00;164934.03;5025663;28;20026;-60
2022/07/07 01:56:23;;;;;;;11.15;10.05;;;;;;;16.66;100.00;164923.16;5024642;28;20040;-60
2022/07/07 01:58:48;;;;;;;13.00;10.18;;;;;;;16.68;100.00;164928.59;5023379;28;20018;-60
2022/07/07 02:01:14;;;;;;;11.48;8.32;;;;;;;16.68;100.00;164928.59;5012304;28;20497;-60
2022/07/07 02:03:39;;;;;;;12.82;9.45;;;;;;;16.71;100.00;164936.75;5014116;28;20026;-60
2022/07/07 02:06:04;;;;;;;15.43;11.25;;;;;;;16.64;100.00;164917.78;5012250;28;20045;-60
2022/07/07 02:08:30;;;;;;;13.63;10.13;;;;;;;16.58;100.00;164901.47;5013553;28;20022;-60
2022/07/07 02:11:14;;;;;;;11.90;10.10;;;;;;;16.49;100.00;164879.81;5012573;28;20048;-60
2022/07/07 02:13:40;;;;;;;16.45;11.25;;;;;;;16.46;100.00;164871.72;4994205;28;20030;-60
2022/07/07 02:16:05;;;;;;;13.18;11.07;;;;;;;16.40;100.00;164855.47;4992590;28;20065;-60
2022/07/07 02:18:36;;;;;;;13.57;11.55;;;;;;;16.37;100.00;164847.31;4994100;28;20034;-60
2022/07/07 02:21:03;;;;;;;11.55;10.05;;;;;;;16.31;100.00;164832.41;4992251;28;20049;-60
2022/07/07 02:23:29;;;;;;;13.63;11.13;;;;;;;16.36;100.00;164843.25;4994094;28;20061;-59
2022/07/07 02:25:54;;;;;;;16.98;10.98;;;;;;;16.32;100.00;164833.78;4992586;28;20121;-59
2022/07/07 02:28:20;;;;;;;13.52;10.43;;;;;;;16.25;100.00;164814.81;5008963;28;20401;-59
2022/07/07 02:30:46;;;;;;;13.45;10.77;;;;;;;16.20;100.00;164802.63;5012009;28;20108;-60
2022/07/07 02:33:12;;;;;;;12.25;10.43;;;;;;;16.20;100.00;164802.63;5013265;28;20026;-59
2022/07/07 02:35:37;;;;;;;22.08;10.02;;;;;;;16.24;100.00;164812.09;5012169;28;20037;-59
2022/07/07 02:38:02;;;;;;;15.43;11.13;;;;;;;16.27;100.00;164821.59;5012980;28;20252;-59
2022/07/07 02:40:29;;;;;;;14.95;9.85;;;;;;;16.24;100.00;164812.09;5011882;28;20026;-59
2022/07/07 02:42:54;;;;;;;12.55;11.25;;;;;;;16.21;100.00;164803.97;5012980;28;20480;-61
2022/07/07 02:45:19;;;;;;;13.23;10.45;;;;;;;16.18;100.00;164797.19;5012869;28;20046;-61
2022/07/07 02:47:45;;;;;;;11.90;10.73;;;;;;;16.17;100.00;164795.88;5011648;28;20096;-61
2022/07/07 02:50:10;;;;;;;12.20;10.50;;;;;;;16.18;100.00;164797.19;5012941;28;20030;-60
2022/07/07 02:52:35;;;;;;;15.70;10.32;;;;;;;16.15;100.00;164790.44;4999541;28;20041;-59
2022/07/07 02:55:01;;;;;;;16.45;9.52;;;;;;;16.23;100.00;164809.41;4993438;28;20096;-60
2022/07/07 02:57:26;;;;;;;14.52;9.52;;;;;;;16.24;100.00;164812.09;5000012;28;20042;-60
2022/07/07 02:59:51;;;;;;;13.35;9.80;;;;;;;16.25;100.00;164814.81;5012808;28;20026;-60
2022/07/07 03:02:17;;;;;;;15.25;9.48;;;;;;;16.25;100.00;164816.16;5011167;28;20034;-60
2022/07/07 03:04:42;;;;;;;12.75;9.55;;;;;;;16.22;100.00;164806.69;5013002;28;20678;-60
2022/07/07 03:07:08;;;;;;;14.52;8.20;;;;;;;16.12;100.00;164780.94;5010922;28;20452;-61
2022/07/07 03:09:33;;;;;;;10.05;7.22;;;;;;;16.05;100.00;164763.31;5012885;28;20025;-60
2022/07/07 03:11:58;;;;;;;9.50;7.47;;;;;;;16.02;100.00;164755.22;5004491;28;20042;-61
2022/07/07 03:14:24;;;;;;;7.20;6.47;;;;;;;15.89;100.00;164720.03;4992996;28;20474;-60
2022/07/07 03:16:50;;;;;;;10.50;8.35;;;;;;;15.82;100.00;164703.69;4991689;28;20122;-61
2022/07/07 03:19:15;;;;;;;9.82;7.30;;;;;;;15.81;100.00;164699.66;4992939;28;20096;-61
2022/07/07 03:21:40;;;;;;;11.00;7.07;;;;;;;15.74;100.00;164682.06;4991160;28;20054;-61
2022/07/07 03:24:06;;;;;;;10.57;7.38;;;;;;;15.71;100.00;164675.25;4992803;28;20022;-61
2022/07/07 03:26:31;;;;;;;7.63;5.10;;;;;;;15.67;100.00;164663.13;4991518;28;20042;-61
2022/07/07 03:28:57;;;;;;;5.90;5.30;;;;;;;15.65;100.00;164657.69;4992512;28;20046;-62
2022/07/07 03:31:23;;;;;;;5.03;4.50;;;;;;;15.39;100.00;164589.97;4991131;28;20046;-62
2022/07/07 03:33:48;;;;;;;5.13;3.80;;;;;;;15.64;100.00;164654.97;4992891;28;20073;-61
2022/07/07 03:36:14;;;;;;;9.05;5.32;;;;;;;15.60;100.00;164644.16;5005769;28;20046;-61
2022/07/07 03:38:39;;;;;;;7.05;4.70;;;;;;;15.58;100.00;164638.75;5012067;28;20014;-62
2022/07/07 03:41:05;;;;;;;7.03;5.03;;;;;;;15.49;100.00;164617.06;5010662;28;20406;-61
2022/07/07 03:43:30;;;;;;;6.30;4.85;;;;;;;15.48;100.00;164614.34;5010195;28;20520;-60
2022/07/07 03:45:56;;;;;;;5.63;4.30;;;;;;;15.42;100.00;164598.13;5010775;28;20045;-59
2022/07/07 03:48:21;;;;;;;5.60;3.95;;;;;;;15.36;100.00;164583.22;5011682;28;20030;-59
2022/07/07 03:50:47;;;;;;;8.15;5.13;;;;;;;15.29;100.00;163942.25;5010503;28;20037;-60
2022/07/07 03:53:12;;;;;;;6.47;5.05;;;;;;;15.21;100.00;157072.31;5010158;28;20036;-60
2022/07/07 03:55:37;;;;;;;5.25;4.75;;;;;;;15.05;100.00;150281.78;5010833;28;20034;-60
2022/07/07 03:58:03;;;;;;;7.28;5.38;;;;;;;15.15;100.00;146047.47;5011658;28;20037;-60
2022/07/07 04:00:29;;;;;;;5.82;5.22;;;;;;;15.18;100.00;142510.84;5020382;28;20025;-60
2022/07/07 04:02:54;;;;;;;6.47;5.65;;;;;;;15.13;100.00;140018.56;5021160;28;20010;-60
2022/07/07 04:05:19;;;;;;;6.30;5.43;;;;;;;15.13;100.00;136834.03;5014861;28;20036;-59
2022/07/07 04:07:45;;;;;;;13.93;7.53;;;;;;;15.14;100.00;134713.81;5011245;28;20045;-60
2022/07/07 04:10:10;;;;;;;8.23;5.78;;;;;;;15.08;100.00;132225.97;5016274;28;20040;-59
2022/07/07 04:12:36;;;;;;;9.02;6.88;;;;;;;15.13;100.00;129409.19;5017534;28;20452;-57
2022/07/07 04:15:02;;;;;;;7.78;6.18;;;;;;;15.12;100.00;127641.53;5021799;28;20045;-57
2022/07/07 04:17:27;;;;;;;7.13;5.95;;;;;;;15.13;100.00;125879.84;5018714;28;20073;-57
2022/07/07 04:19:52;;;;;;;7.35;6.65;;;;;;;15.14;100.00;124822.31;5018471;28;20385;-57
2022/07/07 04:22:18;;;;;;;9.48;7.25;;;;;;;15.14;100.00;124117.81;5017127;28;20060;-57
2022/07/07 04:24:43;;;;;;;9.52;6.00;;;;;;;15.16;100.00;123416.38;5021345;28;20022;-57
2022/07/07 04:27:10;;;;;;;9.93;5.70;;;;;;;15.14;100.00;123412.38;5017942;28;20057;-57
2022/07/07 04:29:35;;;;;;;9.00;6.68;;;;;;;15.15;100.00;122355.44;5026756;28;20132;-57
2022/07/07 04:32:01;;;;;;;8.02;6.05;;;;;;;15.15;100.00;121651.28;5020687;28;20033;-58
2022/07/07 04:34:26;;;;;;;5.97;5.38;;;;;;;15.16;100.00;121300.75;5019175;28;20330;-57
2022/07/07 04:36:52;;;;;;;7.32;6.47;;;;;;;15.17;100.00;120596.78;5018482;28;20033;-57
2022/07/07 04:39:17;;;;;;;5.97;5.38;;;;;;;15.25;100.00;119555.13;5015527;28;20021;-57
2022/07/07 04:41:42;;;;;;;6.43;5.47;;;;;;;15.23;100.00;119903.66;5012145;28;20049;-57
2022/07/07 04:44:08;;;;;;;5.78;4.70;;;;;;;15.25;100.00;120259.03;5019693;28;20036;-58
2022/07/07 04:46:33;;;;;;;8.35;6.00;;;;;;;15.26;100.00;120966.00;5018859;28;20045;-58
2022/07/07 04:48:59;;;;;;;6.10;4.45;;;;;;;15.30;100.00;120973.91;5018138;28;20069;-58
2022/07/07 04:51:24;;;;;;;7.25;5.05;;;;;;;15.29;100.00;121324.50;5018810;28;20091;-57
2022/07/07 04:53:50;;;;;;;7.38;5.50;;;;;;;15.29;100.00;120619.38;5019989;28;20022;-57
2022/07/07 04:56:15;;;;;;;9.50;4.97;;;;;;;15.25;100.00;120259.03;5016774;28;20527;-57
2022/07/07 04:58:41;;;;;;;8.98;5.10;;;;;;;15.25;100.00;119906.56;5024371;28;20091;-57
2022/07/07 05:01:08;;;;;;;6.05;5.40;;;;;;;15.21;100.00;119899.72;5029297;28;20037;-57
2022/07/07 05:03:33;;;;;;;5.07;4.78;;;;;;;15.19;100.00;119544.41;5030600;28;20051;-57
2022/07/07 05:05:59;;;;;;;7.57;4.28;;;;;;;15.20;100.00;118840.66;5022790;28;20084;-57
2022/07/07 05:08:24;;;;;;;10.25;4.57;;;;;;;15.16;100.00;118481.63;5020374;28;20024;-57
2022/07/07 05:10:49;;;;;;;4.45;3.83;;;;;;;15.18;100.00;117076.59;5019898;28;20033;-57
2022/07/07 05:13:15;;;;;;;7.47;4.50;;;;;;;15.23;100.00;116028.75;5030321;28;20036;-57
2022/07/07 05:15:40;;;;;;;4.43;4.00;;;;;;;15.29;100.00;114982.88;5020602;28;20038;-57
2022/07/07 05:18:05;;;;;;;6.53;4.47;;;;;;;15.37;100.00;113589.75;5019687;28;20548;-57
2022/07/07 05:20:31;;;;;;;7.32;3.55;;;;;;;15.45;100.00;112900.50;5019648;28;20877;-57
2022/07/07 05:22:56;;;;;;;8.45;4.35;;;;;;;15.50;100.00;112205.81;5019422;28;20049;-57
2022/07/07 05:25:21;;;;;;;5.18;3.08;;;;;;;15.48;100.00;112905.13;5023161;28;20038;-57
2022/07/07 05:27:48;;;;;;;5.40;3.13;;;;;;;15.52;100.00;113969.50;5030239;28;20064;-57
2022/07/07 05:30:13;;;;;;;6.57;2.88;;;;;;;15.52;100.00;115377.13;5029047;28;20073;-58
2022/07/07 05:32:40;;;;;;;4.80;3.30;;;;;;;15.48;100.00;116778.59;5030463;28;20026;-57
2022/07/07 05:35:06;;;;;;;14.18;3.63;;;;;;;15.40;100.00;118173.59;5029226;28;20038;-57
2022/07/07 05:37:31;;;;;;;4.72;2.05;;;;;;;15.35;100.00;120631.16;5034433;28;20022;-57
2022/07/07 05:39:57;;;;;;;1.55;1.45;;;;;;;15.26;100.00;125198.63;5028378;28;20115;-57
2022/07/07 05:42:22;;;;;;;7.25;1.88;;;;;;;15.15;100.00;131179.81;5023619;28;20010;-57
2022/07/07 05:44:47;;;;;;;7.63;1.60;;;;;;;14.90;100.00;136784.81;5021476;28;20524;-57
2022/07/07 05:47:13;;;;;;;3.75;1.70;;;;;;;15.06;100.00;137880.97;4994422;28;20022;-57
2022/07/07 05:49:38;;;;;;;4.75;2.08;;;;;;;15.12;100.00;135770.44;4993094;28;20030;-57
2022/07/07 05:52:04;;;;;;;6.47;1.98;;;;;;;15.12;100.00;135415.59;4994373;28;20029;-57
2022/07/07 05:54:29;;;;;;;1.88;1.63;;;;;;;15.27;100.00;131911.38;4993374;28;20061;-57
2022/07/07 05:56:55;;;;;;;7.50;2.50;;;;;;;15.35;100.00;131928.63;4994268;28;20019;-57
2022/07/07 05:59:21;;;;;;;6.68;2.60;;;;;;;15.36;100.00;137946.41;4994287;28;20026;-57
2022/07/07 06:01:46;;;;;;;7.90;2.55;;;;;;;15.37;100.00;144325.53;5011411;28;20408;-57
2022/07/07 06:04:11;;;;;;;7.57;2.00;;;;;;;15.49;100.00;148255.94;5021178;28;20022;-57
2022/07/07 06:06:37;;;;;;;11.27;2.60;;;;;;;15.42;100.00;157479.66;5021140;28;20044;-57
2022/07/07 06:09:02;;;;;;;8.20;3.60;;;;;;;15.35;100.00;164164.41;5023109;28;20481;-58
2022/07/07 06:11:27;;;;;;;9.10;1.73;;;;;;;15.44;100.00;164603.56;5022363;28;20382;-57
2022/07/07 06:13:53;;;;;;;8.02;2.10;;;;;;;15.46;100.00;164608.94;5022256;28;20025;-57
2022/07/07 06:16:38;;;;;;;3.33;2.15;;;;;;;15.28;100.00;164560.22;5022002;28;20048;-57
2022/07/07 06:19:10;;;;;;;3.22;1.73;;;;;;;15.18;100.00;164535.84;5022320;28;20385;-57
2022/07/07 06:21:36;;;;;;;7.75;1.77;;;;;;;15.07;100.00;164506.09;5018207;28;20053;-57
2022/07/07 06:24:02;;;;;;;6.25;2.47;;;;;;;14.98;100.00;164483.06;5022812;28;20078;-57
2022/07/07 06:26:27;;;;;;;6.53;1.92;;;;;;;14.85;100.00;164449.25;5022186;28;20030;-57
2022/07/07 06:28:53;;;;;;;4.55;2.25;;;;;;;14.87;100.00;164453.31;5021494;28;20049;-57
2022/07/07 06:31:18;;;;;;;8.52;3.55;;;;;;;14.91;100.00;164464.09;5021876;28;20045;-57
2022/07/07 06:33:44;;;;;;;9.57;3.35;;;;;;;14.95;100.00;164473.56;5022777;28;20546;-57
2022/07/07 06:36:09;;;;;;;10.55;2.78;;;;;;;15.00;100.00;164488.47;5020155;28;20497;-57
2022/07/07 06:38:34;;;;;;;18.00;5.03;;;;;;;15.17;100.00;164533.13;5019253;28;20374;-59
2022/07/07 06:41:00;;;;;;;11.90;2.78;;;;;;;15.38;100.00;164587.25;5021177;28;20056;-57
2022/07/07 06:43:26;;;;;;;16.10;3.92;;;;;;;15.52;100.00;164625.22;5023246;28;20018;-57
2022/07/07 06:45:51;;;;;;;18.75;3.92;;;;;;;15.64;100.00;164654.97;5020003;28;20042;-57
2022/07/07 06:48:17;;;;;;;8.27;2.40;;;;;;;15.78;100.00;164691.56;5021816;28;20396;-57
2022/07/07 06:50:44;;;;;;;5.07;2.05;;;;;;;15.91;100.00;164725.41;5021170;28;20085;-56
2022/07/07 06:53:09;;;;;;;11.82;2.95;;;;;;;15.89;100.00;164720.03;5018649;28;20025;-57
2022/07/07 06:55:34;;;;;;;11.25;2.95;;;;;;;16.23;100.00;164809.41;5011250;28;20045;-56
2022/07/07 06:58:02;;;;;;;3.88;1.98;;;;;;;16.61;100.00;164909.63;5012717;28;20022;-57
2022/07/07 07:00:27;;;;;;;10.80;3.27;;;;;;;16.80;100.00;164961.09;5011406;28;20457;-58
2022/07/07 07:02:53;;;;;;;6.50;1.90;;;;;;;16.88;100.00;164980.06;5012239;28;20437;-57
2022/07/07 07:05:18;;;;;;;8.85;2.08;;;;;;;16.80;100.00;164961.09;5010999;28;20046;-57
2022/07/07 07:07:43;;;;;;;9.07;4.05;;;;;;;16.87;100.00;164977.34;5012597;28;20033;-57
2022/07/07 07:10:09;;;;;;;7.75;2.58;;;;;;;16.84;100.00;164970.56;5010651;28;20096;-57
2022/07/07 07:12:34;;;;;;;16.25;2.70;;;;;;;16.99;100.00;165008.56;5012140;28;20052;-58
2022/07/07 07:14:59;;;;;;;8.38;3.55;;;;;;;17.06;100.00;165028.91;5010814;28;20041;-57
2022/07/07 07:17:25;;;;;;;6.57;2.38;;;;;;;17.34;100.00;165100.75;5012459;28;20013;-57
2022/07/07 07:19:51;;;;;;;6.47;2.38;;;;;;;17.33;100.00;165099.34;5011215;28;20092;-57
2022/07/07 07:22:16;;;;;;;7.65;2.53;;;;;;;17.52;100.00;165149.50;5012171;28;20494;-57
2022/07/07 07:24:42;;;;;;;7.47;3.15;;;;;;;17.59;100.00;165167.16;5010982;28;20025;-57
2022/07/07 07:27:07;;;;;;;6.30;1.85;;;;;;;17.54;100.00;165153.56;5012134;28;20045;-57
2022/07/07 07:29:32;;;;;;;11.13;2.65;;;;;;;17.48;100.00;165138.69;5011309;28;20056;-57
2022/07/07 07:31:58;;;;;;;12.60;3.08;;;;;;;17.68;100.00;165191.56;5011661;28;20037;-57
2022/07/07 07:34:23;;;;;;;8.00;3.28;;;;;;;18.10;100.00;165300.03;5011501;28;20033;-57
2022/07/07 07:36:49;;;;;;;4.40;1.58;;;;;;;18.49;100.00;165403.09;5008559;28;20049;-57
2022/07/07 07:39:14;;;;;;;12.88;2.85;;;;;;;18.48;100.00;165400.38;5010647;28;20381;-57
2022/07/07 07:41:40;;;;;;;5.63;1.63;;;;;;;18.14;100.00;165310.84;5010511;28;20045;-58
2022/07/07 07:44:05;;;;;;;2.10;1.02;;;;;;;17.83;100.00;165229.50;5011796;28;20486;-57
2022/07/07 07:46:31;;;;;;;6.32;1.90;;;;;;;17.30;100.00;165091.25;5010415;28;20497;-58
2022/07/07 07:48:58;;;;;;;7.40;2.13;;;;;;;17.02;100.00;165018.03;5011654;28;20115;-57
2022/07/07 07:51:23;;;;;;;5.10;1.88;;;;;;;16.80;100.00;164961.09;5013806;28;20065;-58
2022/07/07 07:53:48;;;;;;;4.28;1.58;;;;;;;16.49;100.00;164879.81;5021741;28;20473;-58
2022/07/07 07:56:14;;;;;;;5.22;1.65;;;;;;;16.57;100.00;164898.81;5019854;28;20058;-58
2022/07/07 07:58:39;;;;;;;2.63;1.13;;;;;;;16.42;100.00;164859.50;5019506;28;20018;-57
2022/07/07 08:01:05;;;;;;;4.22;1.95;;;;;;;16.47;100.00;164873.03;5020370;28;20386;-57
2022/07/07 08:03:30;;;;;;;9.68;2.25;;;;;;;16.51;100.00;164883.91;5023805;28;20021;-57
2022/07/07 08:05:55;;;;;;;6.05;1.92;;;;;;;16.89;100.00;164982.78;5016296;28;20045;-57
2022/07/07 08:08:21;;;;;;;5.18;1.58;;;;;;;17.08;100.00;165034.34;5010260;28;20033;-57
2022/07/07 08:10:46;;;;;;;5.43;2.30;;;;;;;17.35;100.00;165104.78;5008648;28;20034;-57
2022/07/07 08:13:11;;;;;;;2.63;2.08;;;;;;;17.47;100.00;165134.59;4991269;28;20022;-58
2022/07/07 08:15:37;;;;;;;2.70;1.77;;;;;;;17.54;100.00;165153.56;4990450;28;20042;-57
2022/07/07 08:18:03;;;;;;;4.03;1.27;;;;;;;17.63;100.00;165177.97;4990026;28;20493;-58
2022/07/07 08:20:29;;;;;;;5.07;1.50;;;;;;;18.08;100.00;165297.31;4990024;28;20042;-57
2022/07/07 08:22:55;;;;;;;6.63;2.00;;;;;;;18.28;100.00;165347.47;4991527;28;20049;-57
2022/07/07 08:25:21;;;;;;;3.78;1.27;;;;;;;18.94;100.00;165522.50;5007899;28;20062;-57
2022/07/07 08:27:47;;;;;;;4.05;1.00;;;;;;;19.48;100.00;165664.91;5011269;28;20520;-57
2022/07/07 08:30:13;;;;;;;7.38;1.42;;;;;;;19.50;100.00;165668.97;5009514;28;20066;-57
2022/07/07 08:32:39;;;;;;;1.45;1.10;;;;;;;19.22;100.00;165595.72;5010853;28;20076;-57
2022/07/07 08:35:05;;;;;;;0.70;0.70;;;;;;;18.78;100.00;165480.38;5009460;28;20107;-57
2022/07/07 08:37:31;;;;;;;9.00;1.95;;;;;;;18.59;100.00;165430.19;5011258;28;20041;-57
2022/07/07 08:39:56;;;;;;;1.25;1.00;;;;;;;18.53;100.00;165415.31;5009453;28;20030;-58
2022/07/07 08:42:21;;;;;;;3.38;0.88;;;;;;;18.62;100.00;165438.34;5009386;28;20038;-58
2022/07/07 08:44:47;;;;;;;2.80;0.73;;;;;;;18.83;100.00;165492.56;5009627;28;20053;-58
2022/07/07 08:47:12;;;;;;;3.45;0.93;;;;;;;19.14;100.00;165574.03;5010389;28;20018;-57
2022/07/07 08:49:38;;;;;;;3.20;0.77;;;;;;;18.98;100.00;165533.31;5009628;28;20021;-58
2022/07/07 08:52:03;;;;;;;3.45;0.70;;;;;;;18.91;100.00;165514.28;5010689;28;20030;-57
2022/07/07 08:54:32;;;;;;;1.75;1.00;;;;;;;18.64;100.00;165443.78;5010891;28;20481;-57
2022/07/07 08:56:57;;;;;;;;;;;;;;;18.81;100.00;165487.13;5010658;28;20037;-57
2022/07/07 08:59:22;;;;;;;2.17;0.83;;;;;;;18.93;100.00;165518.38;5010750;28;19962;-58
2022/07/07 09:01:56;;;;;;;2.60;1.35;;;;;;;18.80;100.00;165484.47;5009352;28;20038;-58
2022/07/07 09:04:22;;;;;;;3.13;0.90;;;;;;;18.65;100.00;165446.44;5010769;28;20125;-58
2022/07/07 09:06:56;;;;;;;5.47;1.73;;;;;;;18.69;100.00;165456.00;5009439;28;20042;-58
2022/07/07 09:09:36;;;;;;;4.32;1.10;;;;;;;19.00;100.00;165538.75;5010405;28;20056;-57
2022/07/07 09:12:03;;;;;;;2.20;1.85;;;;;;;20.06;100.00;165815.59;5012807;28;20632;-58
2022/07/07 09:14:37;;;;;;;4.65;1.40;;;;;;;20.34;100.00;165888.88;5015061;28;20030;-58
2022/07/07 09:17:03;;;;;;;5.47;0.98;;;;;;;20.07;100.00;165818.28;5013014;28;20041;-58
2022/07/07 09:19:29;;;;;;;3.95;1.45;;;;;;;19.77;100.00;165739.56;5014899;28;20474;-58
2022/07/07 09:21:54;;;;;;;1.80;0.77;;;;;;;19.09;100.00;165561.81;5013317;28;20049;-58
2022/07/07 09:24:20;;;;;;;0.85;0.70;;;;;;;18.95;100.00;165525.16;5014178;28;20033;-58
2022/07/07 09:26:48;;;;;;;1.27;0.77;;;;;;;18.81;100.00;165487.13;5013294;28;20042;-58
2022/07/07 09:29:21;;;;;;;3.92;1.20;;;;;;;18.87;100.00;165503.47;5014495;28;20512;-58
2022/07/07 09:31:55;;;;;;;2.95;1.20;;;;;;;19.03;100.00;165546.88;5012900;28;20050;-58
2022/07/07 09:34:23;;;;;;;3.92;0.75;;;;;;;19.32;100.00;165622.84;5014259;28;20022;-58
2022/07/07 09:39:42;;;;;;;2.88;1.02;;;;;;;19.99;100.00;165796.59;5012879;28;20036;-58
2022/07/07 09:42:21;;;;;;;2.97;0.90;;;;;;;20.81;100.00;166012.47;5013843;28;20034;-58
2022/07/07 09:44:52;;;;;;;4.28;1.25;;;;;;;21.06;100.00;166080.38;5013109;28;20057;-58
2022/07/07 09:47:19;;;;;;;4.47;1.15;;;;;;;21.21;100.00;166118.41;5013234;28;20061;-58
2022/07/07 09:49:57;;;;;;;3.90;1.95;;;;;;;21.03;100.00;166072.22;5012752;28;20030;-58
2022/07/07 09:52:23;;;;;;;1.75;1.00;;;;;;;20.54;100.00;165943.19;5013820;28;20029;-58
2022/07/07 09:54:49;;;;;;;2.08;1.05;;;;;;;20.13;100.00;165834.59;5012687;28;20527;-58
2022/07/07 09:57:15;;;;;;;2.13;0.80;;;;;;;19.69;100.00;165719.19;5013951;28;20022;-58
2022/07/07 09:59:41;;;;;;;6.75;1.27;;;;;;;19.34;100.00;165628.28;5012570;28;20421;-58
2022/07/07 10:02:13;;;;;;;2.00;1.15;;;;;;;18.87;100.00;165504.78;5013035;28;20094;-58
2022/07/07 10:04:42;;;;;;;5.95;1.45;;;;;;;18.45;100.00;165393.59;5012404;28;20160;-58
2022/07/07 10:07:09;;;;;;;3.72;1.17;;;;;;;18.18;100.00;165321.72;5013107;28;20116;-58
2022/07/07 10:09:35;;;;;;;2.97;0.93;;;;;;;18.06;100.00;165291.88;5010951;28;20080;-58
2022/07/07 10:12:02;;;;;;;3.22;1.30;;;;;;;18.12;100.00;165306.81;4997080;28;20490;-58
2022/07/07 10:14:35;;;;;;;4.18;1.10;;;;;;;18.23;100.00;165335.28;4993823;28;20030;-59
2022/07/07 10:17:01;;;;;;;6.57;1.70;;;;;;;18.44;100.00;165389.50;4972702;28;20030;-58
2022/07/07 10:19:26;;;;;;;4.53;1.40;;;;;;;18.75;100.00;165472.25;4974478;28;20026;-58
2022/07/07 10:21:54;;;;;;;3.72;1.73;;;;;;;18.97;100.00;165529.28;4977559;28;20046;-58
2022/07/07 10:24:21;;;;;;;7.13;1.40;;;;;;;19.31;100.00;165620.16;4992763;28;20037;-58
2022/07/07 10:26:52;;;;;;;1.55;1.00;;;;;;;19.71;100.00;165723.25;4990818;28;20508;-58
2022/07/07 10:29:50;;;;;;;4.55;2.33;;;;;;;20.10;100.00;165826.44;4997314;28;20052;-58
2022/07/07 10:32:40;;;;;;;3.00;1.15;;;;;;;20.42;100.00;165910.63;5016602;28;20447;-57
2022/07/07 10:35:14;;;;;;;3.63;1.80;;;;;;;20.68;100.00;165978.47;5011048;28;20046;-57
2022/07/07 10:37:47;;;;;;;8.57;0.80;;;;;;;20.48;100.00;165926.91;4992907;28;20022;-57
2022/07/07 10:40:18;;;;;;;1.55;0.90;;;;;;;20.10;100.00;165826.44;5006242;28;20045;-57
2022/07/07 10:42:59;;;;;;;3.50;1.15;;;;;;;19.49;100.00;165666.25;5022818;28;20417;-57
2022/07/07 10:45:25;;;;;;;2.95;1.10;;;;;;;19.10;100.00;165563.19;5020162;28;20125;-57
2022/07/07 10:47:50;;;;;;;0.95;0.90;;;;;;;18.65;100.00;165446.44;5016181;28;20528;-57
2022/07/07 10:50:42;;;;;;;4.25;1.40;;;;;;;18.66;100.00;165449.16;5020257;28;20132;-57
2022/07/07 10:53:33;;;;;;;3.33;1.15;;;;;;;18.86;100.00;165502.06;5020421;28;20485;-57
2022/07/07 10:55:58;;;;;;;2.80;1.55;;;;;;;19.05;100.00;165549.59;5018682;28;20038;-58
2022/07/07 10:58:53;;;;;;;2.55;1.60;;;;;;;19.33;100.00;165625.56;5020438;28;20416;-57
2022/07/07 11:01:18;;;;;;;5.45;1.23;;;;;;;19.43;100.00;165649.97;5020093;28;20056;-57
2022/07/07 11:03:44;;;;;;;4.57;1.80;;;;;;;19.58;100.00;165690.69;5021040;28;20026;-57
2022/07/07 11:06:09;;;;;;;8.23;1.77;;;;;;;19.77;100.00;165739.56;5016418;28;20042;-57
2022/07/07 11:08:36;;;;;;;3.50;1.60;;;;;;;20.08;100.00;165821.00;5002071;28;20018;-58
2022/07/07 11:11:03;;;;;;;2.83;0.93;;;;;;;20.24;100.00;165864.44;5012059;28;20559;-57
2022/07/07 11:13:38;;;;;;;2.70;1.77;;;;;;;20.52;100.00;165937.72;5022788;28;20025;-57
2022/07/07 11:16:05;;;;;;;4.82;1.40;;;;;;;20.48;100.00;165925.56;5021004;28;20048;-58